createdAt,value
2023-01-13T05:30:26.255Z,662.00
2023-01-13T05:30:40.144Z,647.00
2023-01-13T05:30:54.056Z,642.00
2023-01-13T05:31:07.979Z,637.00
2023-01-13T05:31:21.977Z,634.00
2023-01-13T05:31:36.012Z,636.00
2023-01-13T05:31:50.174Z,636.00
2023-01-13T05:32:04.259Z,637.00
2023-01-13T05:32:18.402Z,638.00
2023-01-13T05:32:32.294Z,637.00
2023-01-13T05:32:46.164Z,638.00
2023-01-13T05:33:00.051Z,637.00
2023-01-13T05:33:13.924Z,637.00
2023-01-13T05:33:27.805Z,638.00
2023-01-13T05:33:41.686Z,638.00
2023-01-13T05:33:55.816Z,637.00
2023-01-13T05:34:09.681Z,637.00
2023-01-13T05:34:26.162Z,637.00
2023-01-13T05:34:38.554Z,637.00
2023-01-13T05:34:52.431Z,637.00
2023-01-13T05:35:06.290Z,638.00
2023-01-13T05:35:20.165Z,638.00
2023-01-13T05:35:34.020Z,639.00
2023-01-13T05:35:47.899Z,638.00
2023-01-13T05:36:02.768Z,638.00
2023-01-13T05:36:16.650Z,639.00
2023-01-13T05:36:30.759Z,640.00
2023-01-13T05:36:44.657Z,640.00
2023-01-13T05:36:58.616Z,640.00
2023-01-13T05:37:12.600Z,641.00
2023-01-13T05:37:26.500Z,640.00
2023-01-13T05:37:40.583Z,641.00
2023-01-13T05:37:54.717Z,641.00
2023-01-13T05:38:08.945Z,639.00
2023-01-13T05:38:24.377Z,641.00
2023-01-13T05:38:36.455Z,640.00
2023-01-13T05:38:51.008Z,640.00
2023-01-13T05:39:05.660Z,641.00
2023-01-13T05:39:20.182Z,640.00
2023-01-13T05:39:34.314Z,640.00
2023-01-13T05:39:48.270Z,640.00
2023-01-13T05:40:02.178Z,640.00
2023-01-13T05:40:16.114Z,640.00
2023-01-13T05:40:30.185Z,640.00
2023-01-13T05:40:44.109Z,641.00
2023-01-13T05:40:59.467Z,641.00
2023-01-13T05:41:10.948Z,640.00
2023-01-13T05:41:24.798Z,640.00
2023-01-13T05:41:38.688Z,639.00
2023-01-13T05:41:52.558Z,639.00
2023-01-13T05:42:06.416Z,639.00
2023-01-13T05:42:20.274Z,638.00
2023-01-13T05:42:34.129Z,637.00
2023-01-13T05:42:48.144Z,637.00
2023-01-13T05:43:02.075Z,637.00
2023-01-13T05:43:15.923Z,638.00
2023-01-13T05:43:29.785Z,640.00
2023-01-13T05:43:43.637Z,640.00
2023-01-13T05:43:57.494Z,640.00
2023-01-13T05:44:11.349Z,640.00
2023-01-13T05:44:25.197Z,641.00
2023-01-13T05:44:39.045Z,640.00
2023-01-13T05:44:52.893Z,640.00
2023-01-13T05:45:06.746Z,640.00
2023-01-13T05:45:20.605Z,641.00
2023-01-13T05:45:34.498Z,640.00
2023-01-13T05:45:48.363Z,640.00
2023-01-13T05:46:15.134Z,640.00
2023-01-13T05:46:29.101Z,640.00
2023-01-13T05:46:43.061Z,639.00
2023-01-13T05:46:56.921Z,638.00
2023-01-13T05:47:10.784Z,638.00
2023-01-13T05:47:24.639Z,639.00
2023-01-13T05:47:38.477Z,638.00
2023-01-13T05:47:52.371Z,638.00
2023-01-13T05:48:06.227Z,638.00
2023-01-13T05:48:20.084Z,638.00
2023-01-13T05:48:33.942Z,638.00
2023-01-13T05:48:47.821Z,638.00
2023-01-13T05:49:01.699Z,638.00
2023-01-13T05:49:15.585Z,638.00
2023-01-13T05:49:29.432Z,638.00
2023-01-13T05:49:43.284Z,638.00
2023-01-13T05:49:57.144Z,638.00
2023-01-13T05:50:10.993Z,637.00
2023-01-13T05:50:24.839Z,638.00
2023-01-13T05:50:38.693Z,638.00
2023-01-13T05:50:52.587Z,638.00
2023-01-13T05:51:06.450Z,638.00
2023-01-13T05:51:20.328Z,638.00
2023-01-13T05:51:34.178Z,637.00
2023-01-13T05:51:48.050Z,637.00
2023-01-13T05:52:01.903Z,636.00
2023-01-13T05:52:29.615Z,636.00
2023-01-13T05:52:43.470Z,635.00
2023-01-13T05:52:57.326Z,636.00
2023-01-13T05:53:11.183Z,635.00
2023-01-13T05:53:25.053Z,635.00
2023-01-13T05:53:38.903Z,635.00
2023-01-13T05:53:52.750Z,635.00
2023-01-13T05:54:06.660Z,635.00
2023-01-13T05:54:20.508Z,635.00
2023-01-13T05:54:34.372Z,634.00
2023-01-13T05:54:48.217Z,634.00
2023-01-13T05:55:02.074Z,633.00
2023-01-13T05:55:29.733Z,633.00
2023-01-13T05:55:43.608Z,633.00
2023-01-13T05:55:57.454Z,633.00
2023-01-13T05:56:11.342Z,634.00
2023-01-13T05:56:25.196Z,633.00
2023-01-13T05:56:39.067Z,633.00
2023-01-13T05:56:52.910Z,634.00
2023-01-13T05:57:06.761Z,634.00
2023-01-13T05:57:20.616Z,634.00
2023-01-13T05:57:34.458Z,634.00
2023-01-13T05:57:48.312Z,633.00
2023-01-13T05:58:02.164Z,633.00
2023-01-13T05:58:16.019Z,634.00
2023-01-13T05:58:29.860Z,634.00
2023-01-13T05:58:43.730Z,635.00
2023-01-13T05:58:57.586Z,635.00
2023-01-13T05:59:11.440Z,635.00
2023-01-13T05:59:39.116Z,634.00
2023-01-13T05:59:52.968Z,635.00
2023-01-13T06:00:06.835Z,634.00
2023-01-13T06:00:20.681Z,634.00
2023-01-13T06:00:34.550Z,634.00
2023-01-13T06:00:48.423Z,635.00
2023-01-13T06:01:02.341Z,634.00
2023-01-13T06:01:16.690Z,634.00
2023-01-13T06:01:30.568Z,633.00
2023-01-13T06:01:44.457Z,631.00
2023-01-13T06:01:58.315Z,632.00
2023-01-13T06:02:12.155Z,632.00
2023-01-13T06:02:26.009Z,631.00
2023-01-13T06:02:39.928Z,631.00
2023-01-13T06:02:53.880Z,631.00
2023-01-13T06:03:07.880Z,631.00
2023-01-13T06:03:21.781Z,630.00
2023-01-13T06:03:49.465Z,631.00
2023-01-13T06:04:03.462Z,631.00
2023-01-13T06:04:17.372Z,631.00
2023-01-13T06:04:31.343Z,631.00
2023-01-13T06:04:45.320Z,631.00
2023-01-13T06:04:59.207Z,630.00
2023-01-13T06:05:13.061Z,630.00
2023-01-13T06:05:26.908Z,630.00
2023-01-13T06:05:40.750Z,630.00
2023-01-13T06:05:54.646Z,629.00
2023-01-13T06:06:08.500Z,629.00
2023-01-13T06:06:22.365Z,627.00
2023-01-13T06:06:50.056Z,626.00
2023-01-13T06:07:03.919Z,626.00
2023-01-13T06:07:17.774Z,627.00
2023-01-13T06:07:31.654Z,628.00
2023-01-13T06:07:45.504Z,628.00
2023-01-13T06:07:59.353Z,628.00
2023-01-13T06:08:13.211Z,627.00
2023-01-13T06:08:27.066Z,627.00
2023-01-13T06:08:40.919Z,626.00
2023-01-13T06:08:54.760Z,625.00
2023-01-13T06:09:08.618Z,625.00
2023-01-13T06:09:22.471Z,625.00
2023-01-13T06:09:36.328Z,625.00
2023-01-13T06:09:50.171Z,625.00
2023-01-13T06:10:04.017Z,625.00
2023-01-13T06:10:17.863Z,624.00
2023-01-13T06:10:31.720Z,624.00
2023-01-13T06:10:59.442Z,623.00
2023-01-13T06:11:13.307Z,623.00
2023-01-13T06:11:27.204Z,623.00
2023-01-13T06:11:41.065Z,623.00
2023-01-13T06:11:54.918Z,623.00
2023-01-13T06:12:08.778Z,623.00
2023-01-13T06:12:22.635Z,623.00
2023-01-13T06:12:36.501Z,622.00
2023-01-13T06:12:50.355Z,622.00
2023-01-13T06:13:04.208Z,621.00
2023-01-13T06:13:18.067Z,621.00
2023-01-13T06:13:31.914Z,621.00
2023-01-13T06:13:59.592Z,621.00
2023-01-13T06:14:13.444Z,621.00
2023-01-13T06:14:27.300Z,621.00
2023-01-13T06:14:41.151Z,622.00
2023-01-13T06:14:55.005Z,622.00
2023-01-13T06:15:08.845Z,622.00
2023-01-13T06:15:22.711Z,622.00
2023-01-13T06:15:36.584Z,621.00
2023-01-13T06:15:50.458Z,622.00
2023-01-13T06:16:04.426Z,621.00
2023-01-13T06:16:18.461Z,621.00
2023-01-13T06:16:32.384Z,622.00
2023-01-13T06:16:46.314Z,622.00
2023-01-13T06:17:00.209Z,622.00
2023-01-13T06:17:14.084Z,623.00
2023-01-13T06:17:27.979Z,679.00
2023-01-13T06:17:41.814Z,671.00
2023-01-13T06:18:09.519Z,654.00
2023-01-13T06:18:23.360Z,646.00
2023-01-13T06:18:37.222Z,638.00
2023-01-13T06:18:51.069Z,635.00
2023-01-13T06:19:04.916Z,631.00
2023-01-13T06:19:18.767Z,630.00
2023-01-13T06:19:32.615Z,631.00
2023-01-13T06:19:46.467Z,630.00
2023-01-13T06:20:00.336Z,628.00
2023-01-13T06:20:14.191Z,626.00
2023-01-13T06:20:28.039Z,626.00
2023-01-13T06:20:41.940Z,625.00
2023-01-13T06:20:55.794Z,625.00
2023-01-13T06:21:09.681Z,624.00
2023-01-13T06:21:23.521Z,622.00
2023-01-13T06:21:37.388Z,619.00
2023-01-13T06:21:51.249Z,616.00
2023-01-13T06:22:18.929Z,611.00
2023-01-13T06:22:32.810Z,608.00
2023-01-13T06:22:46.752Z,609.00
2023-01-13T06:23:00.594Z,607.00
2023-01-13T06:23:14.461Z,606.00
2023-01-13T06:23:28.326Z,605.00
2023-01-13T06:23:42.175Z,603.00
2023-01-13T06:23:56.025Z,600.00
2023-01-13T06:24:09.877Z,595.00
2023-01-13T06:24:23.723Z,591.00
2023-01-13T06:24:37.578Z,586.00
2023-01-13T06:24:51.434Z,582.00
2023-01-13T06:25:19.117Z,577.00
2023-01-13T06:25:32.969Z,576.00
2023-01-13T06:25:46.859Z,574.00
2023-01-13T06:26:00.703Z,572.00
2023-01-13T06:26:14.569Z,570.00
2023-01-13T06:26:28.421Z,569.00
2023-01-13T06:26:42.262Z,569.00
2023-01-13T06:26:56.119Z,568.00
2023-01-13T06:27:10.039Z,567.00
2023-01-13T06:27:23.941Z,566.00
2023-01-13T06:27:37.783Z,566.00
2023-01-13T06:27:51.653Z,564.00
2023-01-13T06:28:05.523Z,563.00
2023-01-13T06:28:19.383Z,555.00
2023-01-13T06:28:33.300Z,547.00
2023-01-13T06:28:47.195Z,542.00
2023-01-13T06:29:01.047Z,539.00
2023-01-13T06:29:28.721Z,529.00
2023-01-13T06:29:42.598Z,525.00
2023-01-13T06:29:56.469Z,522.00
2023-01-13T06:30:10.326Z,517.00
2023-01-13T06:30:24.182Z,515.00
2023-01-13T06:30:38.025Z,511.00
2023-01-13T06:30:51.873Z,509.00
2023-01-13T06:31:05.824Z,508.00
2023-01-13T06:31:19.824Z,509.00
2023-01-13T06:31:33.785Z,506.00
2023-01-13T06:31:47.740Z,505.00
2023-01-13T06:32:01.609Z,505.00
2023-01-13T06:32:15.465Z,506.00
2023-01-13T06:32:29.352Z,503.00
2023-01-13T06:32:43.195Z,502.00
2023-01-13T06:32:57.069Z,502.00
2023-01-13T06:33:10.935Z,501.00
2023-01-13T06:33:24.794Z,501.00
2023-01-13T06:33:38.648Z,499.00
2023-01-13T06:33:52.493Z,484.00
2023-01-13T06:34:06.363Z,478.00
2023-01-13T06:34:20.227Z,475.00
2023-01-13T06:34:34.084Z,475.00
2023-01-13T06:34:47.951Z,473.00
2023-01-13T06:35:03.653Z,471.00
2023-01-13T06:35:16.043Z,466.00
2023-01-13T06:35:29.895Z,465.00
2023-01-13T06:35:43.760Z,463.00
2023-01-13T06:35:57.678Z,461.00
2023-01-13T06:36:11.556Z,460.00
2023-01-13T06:36:39.270Z,457.00
2023-01-13T06:36:53.119Z,455.00
2023-01-13T06:37:06.978Z,454.00
2023-01-13T06:37:20.843Z,453.00
2023-01-13T06:37:34.724Z,451.00
2023-01-13T06:37:48.573Z,449.00
2023-01-13T06:38:02.423Z,449.00
2023-01-13T06:38:16.268Z,447.00
2023-01-13T06:38:30.131Z,446.00
2023-01-13T06:38:44.005Z,445.00
2023-01-13T06:38:57.913Z,444.00
2023-01-13T06:39:11.773Z,442.00
2023-01-13T06:39:25.621Z,440.00
2023-01-13T06:39:39.509Z,439.00
2023-01-13T06:39:53.356Z,439.00
2023-01-13T06:40:07.231Z,438.00
2023-01-13T06:40:21.109Z,437.00
2023-01-13T06:40:48.795Z,436.00
2023-01-13T06:41:02.636Z,436.00
2023-01-13T06:41:16.503Z,434.00
2023-01-13T06:41:30.359Z,433.00
2023-01-13T06:41:44.215Z,432.00
2023-01-13T06:41:58.067Z,431.00
2023-01-13T06:42:11.917Z,429.00
2023-01-13T06:42:25.771Z,428.00
2023-01-13T06:42:39.618Z,427.00
2023-01-13T06:42:53.471Z,427.00
2023-01-13T06:43:07.329Z,427.00
2023-01-13T06:43:21.188Z,426.00
2023-01-13T06:43:48.925Z,425.00
2023-01-13T06:44:02.847Z,426.00
2023-01-13T06:44:16.773Z,425.00
2023-01-13T06:44:30.680Z,425.00
2023-01-13T06:44:44.586Z,426.00
2023-01-13T06:44:58.430Z,426.00
2023-01-13T06:45:12.326Z,426.00
2023-01-13T06:45:26.242Z,427.00
2023-01-13T06:45:40.120Z,427.00
2023-01-13T06:45:54.012Z,427.00
2023-01-13T06:46:07.924Z,428.00
2023-01-13T06:46:21.886Z,429.00
2023-01-13T06:46:35.939Z,430.00
2023-01-13T06:46:49.966Z,432.00
2023-01-13T06:47:03.934Z,434.00
2023-01-13T06:47:17.877Z,438.00
2023-01-13T06:47:31.769Z,439.00
2023-01-13T06:47:59.574Z,442.00
2023-01-13T06:48:13.511Z,447.00
2023-01-13T06:48:27.433Z,450.00
2023-01-13T06:48:41.328Z,479.00
2023-01-13T06:48:55.230Z,491.00
2023-01-13T06:49:09.129Z,494.00
2023-01-13T06:49:23.067Z,499.00
2023-01-13T06:49:36.983Z,499.00
2023-01-13T06:49:50.911Z,497.00
2023-01-13T06:50:04.828Z,493.00
2023-01-13T06:50:18.744Z,491.00
2023-01-13T06:50:32.641Z,493.00
2023-01-13T06:50:46.533Z,494.00
2023-01-13T06:51:00.462Z,493.00
2023-01-13T06:51:14.368Z,494.00
2023-01-13T06:51:28.206Z,496.00
2023-01-13T06:51:42.122Z,506.00
2023-01-13T06:52:09.962Z,573.00
2023-01-13T06:52:23.839Z,571.00
2023-01-13T06:52:37.764Z,575.00
2023-01-13T06:52:51.697Z,581.00
2023-01-13T06:53:05.550Z,586.00
2023-01-13T06:53:19.481Z,600.00
2023-01-13T06:53:33.418Z,610.00
2023-01-13T06:53:47.320Z,608.00
2023-01-13T06:54:01.227Z,601.00
2023-01-13T06:54:15.115Z,608.00
2023-01-13T06:54:29.011Z,609.00
2023-01-13T06:54:42.918Z,609.00
2023-01-13T06:54:56.845Z,611.00
2023-01-13T06:55:10.727Z,616.00
2023-01-13T06:55:38.545Z,624.00
2023-01-13T06:55:52.474Z,624.00
2023-01-13T06:56:06.404Z,624.00
2023-01-13T06:56:20.323Z,632.00
2023-01-13T06:56:34.248Z,674.00
2023-01-13T06:56:48.170Z,645.00
2023-01-13T06:57:02.025Z,651.00
2023-01-13T06:57:16.014Z,647.00
2023-01-13T06:57:30.017Z,613.00
2023-01-13T06:57:43.926Z,609.00
2023-01-13T06:57:57.803Z,622.00
2023-01-13T06:58:11.779Z,622.00
2023-01-13T06:58:25.655Z,622.00
2023-01-13T06:58:39.584Z,630.00
2023-01-13T06:58:53.515Z,620.00
2023-01-13T06:59:07.481Z,621.00
2023-01-13T06:59:21.382Z,624.00
2023-01-13T06:59:50.543Z,627.00
2023-01-13T07:00:02.037Z,637.00
2023-01-13T07:00:15.916Z,677.00
2023-01-13T07:00:29.776Z,659.00
2023-01-13T07:00:43.658Z,657.00
2023-01-13T07:00:57.662Z,653.00
2023-01-13T07:01:11.807Z,641.00
2023-01-13T07:01:26.062Z,647.00
2023-01-13T07:01:40.289Z,652.00
2023-01-13T07:01:54.531Z,652.00
2023-01-13T07:02:08.695Z,652.00
2023-01-13T07:02:22.878Z,649.00
2023-01-13T07:02:36.860Z,644.00
2023-01-13T07:02:50.999Z,648.00
2023-01-13T07:03:07.025Z,654.00
2023-01-13T07:03:18.533Z,651.00
2023-01-13T07:03:32.633Z,654.00
2023-01-13T07:03:46.726Z,657.00
2023-01-13T07:04:00.633Z,655.00
2023-01-13T07:04:28.446Z,662.00
2023-01-13T07:04:42.489Z,670.00
2023-01-13T07:04:56.415Z,660.00
2023-01-13T07:05:10.274Z,685.00
2023-01-13T07:05:24.126Z,652.00
2023-01-13T07:05:37.970Z,662.00
2023-01-13T07:05:51.805Z,660.00
2023-01-13T07:06:05.681Z,661.00
2023-01-13T07:06:19.580Z,656.00
2023-01-13T07:06:33.448Z,650.00
2023-01-13T07:06:47.298Z,657.00
2023-01-13T07:07:01.143Z,670.00
2023-01-13T07:07:28.820Z,667.00
2023-01-13T07:07:42.683Z,666.00
2023-01-13T07:07:56.709Z,671.00
2023-01-13T07:08:10.661Z,693.00
2023-01-13T07:08:24.518Z,734.00
2023-01-13T07:08:38.383Z,737.00
2023-01-13T07:08:52.252Z,738.00
2023-01-13T07:09:06.999Z,734.00
2023-01-13T07:09:20.914Z,732.00
2023-01-13T07:09:34.770Z,732.00
2023-01-13T07:09:48.631Z,736.00
2023-01-13T07:10:02.482Z,737.00
2023-01-13T07:10:16.324Z,737.00
2023-01-13T07:10:30.264Z,741.00
2023-01-13T07:10:44.135Z,746.00
2023-01-13T07:10:57.989Z,749.00
2023-01-13T07:11:11.843Z,751.00
2023-01-13T07:11:39.559Z,759.00
2023-01-13T07:11:53.421Z,761.00
2023-01-13T07:12:07.264Z,760.00
2023-01-13T07:12:21.117Z,761.00
2023-01-13T07:12:34.982Z,765.00
2023-01-13T07:12:48.825Z,768.00
2023-01-13T07:13:02.683Z,770.00
2023-01-13T07:13:16.713Z,770.00
2023-01-13T07:13:30.878Z,773.00
2023-01-13T07:13:45.337Z,775.00
2023-01-13T07:13:59.365Z,791.00
2023-01-13T07:14:13.223Z,792.00
2023-01-13T07:14:27.111Z,790.00
2023-01-13T07:14:40.953Z,792.00
2023-01-13T07:15:08.639Z,794.00
2023-01-13T07:15:22.491Z,794.00
2023-01-13T07:15:36.328Z,792.00
2023-01-13T07:15:50.205Z,791.00
2023-01-13T07:16:04.149Z,791.00
2023-01-13T07:16:18.051Z,794.00
2023-01-13T07:16:32.047Z,796.00
2023-01-13T07:16:46.053Z,798.00
2023-01-13T07:16:59.907Z,800.00
2023-01-13T07:17:13.751Z,802.00
2023-01-13T07:17:27.613Z,804.00
2023-01-13T07:17:41.493Z,804.00
2023-01-13T07:17:55.349Z,807.00
2023-01-13T07:18:09.198Z,810.00
2023-01-13T07:18:23.042Z,811.00
2023-01-13T07:18:36.888Z,813.00
2023-01-13T07:18:50.751Z,813.00
2023-01-13T07:19:18.439Z,818.00
2023-01-13T07:19:32.300Z,823.00
2023-01-13T07:19:46.164Z,826.00
2023-01-13T07:20:00.025Z,827.00
2023-01-13T07:20:13.876Z,827.00
2023-01-13T07:20:27.728Z,827.00
2023-01-13T07:20:41.572Z,829.00
2023-01-13T07:20:55.428Z,831.00
2023-01-13T07:21:09.297Z,834.00
2023-01-13T07:21:23.137Z,835.00
2023-01-13T07:21:36.985Z,839.00
2023-01-13T07:21:50.841Z,854.00
2023-01-13T07:22:04.701Z,858.00
2023-01-13T07:22:18.539Z,863.00
2023-01-13T07:22:32.387Z,864.00
2023-01-13T07:22:46.239Z,868.00
2023-01-13T07:23:00.104Z,869.00
2023-01-13T07:23:13.960Z,869.00
2023-01-13T07:23:27.815Z,871.00
2023-01-13T07:23:41.696Z,871.00
2023-01-13T07:23:55.530Z,872.00
2023-01-13T07:24:09.381Z,871.00
2023-01-13T07:24:23.216Z,873.00
2023-01-13T07:24:37.062Z,878.00
2023-01-13T07:24:50.930Z,912.00
2023-01-13T07:25:04.810Z,922.00
2023-01-13T07:25:18.666Z,915.00
2023-01-13T07:25:32.550Z,912.00
2023-01-13T07:25:46.406Z,912.00
2023-01-13T07:26:00.267Z,908.00
2023-01-13T07:26:27.971Z,900.00
2023-01-13T07:26:41.831Z,897.00
2023-01-13T07:26:55.666Z,896.00
2023-01-13T07:27:09.514Z,896.00
2023-01-13T07:27:23.352Z,900.00
2023-01-13T07:27:37.198Z,903.00
2023-01-13T07:27:51.056Z,903.00
2023-01-13T07:28:04.903Z,901.00
2023-01-13T07:28:18.774Z,901.00
2023-01-13T07:28:32.633Z,902.00
2023-01-13T07:28:46.483Z,902.00
2023-01-13T07:29:00.329Z,905.00
2023-01-13T07:29:14.180Z,906.00
2023-01-13T07:29:28.015Z,906.00
2023-01-13T07:29:41.875Z,906.00
2023-01-13T07:29:55.719Z,908.00
2023-01-13T07:30:09.565Z,908.00
2023-01-13T07:30:23.413Z,907.00
2023-01-13T07:30:37.260Z,908.00
2023-01-13T07:30:51.121Z,909.00
2023-01-13T07:31:04.965Z,909.00
2023-01-13T07:31:18.884Z,910.00
2023-01-13T07:31:32.950Z,910.00
2023-01-13T07:31:49.803Z,910.00
2023-01-13T07:32:01.438Z,913.00
2023-01-13T07:32:15.330Z,912.00
2023-01-13T07:32:29.233Z,913.00
2023-01-13T07:32:43.137Z,913.00
2023-01-13T07:32:56.984Z,914.00
2023-01-13T07:33:10.834Z,914.00
2023-01-13T07:33:38.655Z,913.00
2023-01-13T07:33:52.526Z,915.00
2023-01-13T07:34:06.370Z,917.00
2023-01-13T07:34:20.232Z,919.00
2023-01-13T07:34:34.102Z,921.00
2023-01-13T07:34:47.958Z,922.00
2023-01-13T07:35:01.991Z,924.00
2023-01-13T07:35:15.847Z,927.00
2023-01-13T07:35:29.675Z,928.00
2023-01-13T07:35:43.525Z,930.00
2023-01-13T07:35:57.379Z,931.00
2023-01-13T07:36:11.240Z,932.00
2023-01-13T07:36:25.078Z,934.00
2023-01-13T07:36:38.977Z,934.00
2023-01-13T07:36:52.847Z,936.00
2023-01-13T07:37:06.711Z,938.00
2023-01-13T07:37:20.558Z,940.00
2023-01-13T07:37:48.253Z,944.00
2023-01-13T07:38:02.114Z,945.00
2023-01-13T07:38:15.956Z,947.00
2023-01-13T07:38:29.805Z,949.00
2023-01-13T07:38:43.667Z,952.00
2023-01-13T07:38:57.525Z,956.00
2023-01-13T07:39:11.376Z,959.00
2023-01-13T07:39:25.236Z,962.00
2023-01-13T07:39:39.079Z,966.00
2023-01-13T07:39:52.938Z,968.00
2023-01-13T07:40:06.791Z,970.00
2023-01-13T07:40:20.653Z,973.00
2023-01-13T07:40:48.320Z,977.00
2023-01-13T07:41:02.170Z,980.00
2023-01-13T07:41:16.020Z,981.00
2023-01-13T07:41:29.865Z,982.00
2023-01-13T07:41:43.710Z,985.00
2023-01-13T07:41:57.555Z,986.00
2023-01-13T07:42:11.410Z,986.00
2023-01-13T07:42:25.259Z,987.00
2023-01-13T07:42:39.097Z,987.00
2023-01-13T07:42:52.959Z,988.00
2023-01-13T07:43:06.820Z,987.00
2023-01-13T07:43:20.673Z,990.00
2023-01-13T07:43:34.540Z,1000.00
2023-01-13T07:43:48.387Z,1013.00
2023-01-13T07:44:02.230Z,1010.00
2023-01-13T07:44:29.924Z,1039.00
2023-01-13T07:44:43.778Z,1032.00
2023-01-13T07:44:57.624Z,1028.00
2023-01-13T07:45:12.389Z,1028.00
2023-01-13T07:45:26.430Z,1028.00
2023-01-13T07:45:40.318Z,1028.00
2023-01-13T07:45:54.273Z,1030.00
2023-01-13T07:46:08.184Z,1026.00
2023-01-13T07:46:22.073Z,1025.00
2023-01-13T07:46:35.931Z,1023.00
2023-01-13T07:46:49.810Z,1023.00
2023-01-13T07:47:03.653Z,1025.00
2023-01-13T07:47:17.511Z,1027.00
2023-01-13T07:47:31.367Z,1028.00
2023-01-13T07:47:59.151Z,1028.00
2023-01-13T07:48:13.098Z,1030.00
2023-01-13T07:48:26.979Z,1032.00
2023-01-13T07:48:40.851Z,1033.00
2023-01-13T07:48:54.710Z,1034.00
2023-01-13T07:49:08.562Z,1036.00
2023-01-13T07:49:22.431Z,1036.00
2023-01-13T07:49:36.303Z,1037.00
2023-01-13T07:49:50.139Z,1042.00
2023-01-13T07:50:04.007Z,1054.00
2023-01-13T07:50:17.893Z,1053.00
2023-01-13T07:50:31.746Z,1090.00
2023-01-13T07:50:45.586Z,1119.00
2023-01-13T07:50:59.479Z,1121.00
2023-01-13T07:51:13.331Z,1118.00
2023-01-13T07:51:27.180Z,1126.00
2023-01-13T07:51:41.028Z,1124.00
2023-01-13T07:52:08.724Z,1113.00
2023-01-13T07:52:22.586Z,1106.00
2023-01-13T07:52:36.471Z,1100.00
2023-01-13T07:52:50.437Z,1100.00
2023-01-13T07:53:04.333Z,1096.00
2023-01-13T07:53:18.213Z,1097.00
2023-01-13T07:53:32.222Z,1099.00
2023-01-13T07:53:46.112Z,1098.00
2023-01-13T07:53:59.975Z,1099.00
2023-01-13T07:54:13.843Z,1096.00
2023-01-13T07:54:39.629Z,1100.00
2023-01-13T07:55:26.940Z,1109.00
2023-01-13T07:55:40.794Z,1117.00
2023-01-13T07:55:55.065Z,1115.00
2023-01-13T07:56:08.924Z,1116.00
2023-01-13T07:56:22.776Z,1119.00
2023-01-13T07:56:36.850Z,1120.00
2023-01-13T07:56:50.829Z,1119.00
2023-01-13T07:57:04.685Z,1115.00
2023-01-13T07:57:18.543Z,1111.00
2023-01-13T07:57:32.645Z,1110.00
2023-01-13T07:57:46.876Z,1110.00
2023-01-13T07:58:01.147Z,1117.00
2023-01-13T07:58:15.575Z,1128.00
2023-01-13T07:58:29.579Z,1123.00
2023-01-13T07:58:43.469Z,1118.00
2023-01-13T07:58:57.395Z,1111.00
2023-01-13T07:59:11.300Z,1113.00
2023-01-13T07:59:25.174Z,1111.00
2023-01-13T07:59:39.055Z,1113.00
2023-01-13T07:59:52.912Z,1116.00
2023-01-13T08:00:06.782Z,1117.00
2023-01-13T08:00:20.642Z,1113.00
2023-01-13T08:00:34.517Z,1109.00
2023-01-13T08:00:48.416Z,1106.00
2023-01-13T08:01:02.385Z,1104.00
2023-01-13T08:01:16.379Z,1108.00
2023-01-13T08:01:30.433Z,1126.00
2023-01-13T08:01:44.438Z,1139.00
2023-01-13T08:01:58.718Z,1141.00
2023-01-13T08:02:12.896Z,1148.00
2023-01-13T08:02:27.043Z,1146.00
2023-01-13T08:02:41.425Z,1146.00
2023-01-13T08:02:55.369Z,1371.00
2023-01-13T08:03:09.337Z,1420.00
2023-01-13T08:03:23.246Z,1293.00
2023-01-13T08:03:37.107Z,1186.00
2023-01-13T08:03:50.974Z,1148.00
2023-01-13T08:04:04.833Z,1029.00
2023-01-13T08:04:18.709Z,996.00
2023-01-13T08:04:32.566Z,979.00
2023-01-13T08:04:46.430Z,965.00
2023-01-13T08:05:00.284Z,945.00
2023-01-13T08:05:14.154Z,939.00
2023-01-13T08:05:28.354Z,950.00
2023-01-13T08:05:42.230Z,966.00
2023-01-13T08:05:56.091Z,1021.00
2023-01-13T08:06:09.947Z,1047.00
2023-01-13T08:06:23.818Z,1065.00
2023-01-13T08:06:37.667Z,1069.00
2023-01-13T08:06:51.535Z,1038.00
2023-01-13T08:07:05.389Z,948.00
2023-01-13T08:07:19.252Z,992.00
2023-01-13T08:07:33.128Z,1004.00
2023-01-13T08:07:47.014Z,1013.00
2023-01-13T08:08:00.869Z,1018.00
2023-01-13T08:08:14.733Z,1012.00
2023-01-13T08:08:28.596Z,1004.00
2023-01-13T08:08:42.446Z,997.00
2023-01-13T08:08:56.302Z,991.00
2023-01-13T08:09:10.201Z,988.00
2023-01-13T08:09:24.059Z,986.00
2023-01-13T08:09:37.908Z,989.00
2023-01-13T08:09:51.775Z,989.00
2023-01-13T08:10:05.629Z,990.00
2023-01-13T08:10:19.774Z,992.00
2023-01-13T08:10:33.622Z,993.00
2023-01-13T08:10:47.499Z,995.00
2023-01-13T08:11:01.389Z,995.00
2023-01-13T08:11:15.574Z,997.00
2023-01-13T08:11:29.421Z,997.00
2023-01-13T08:11:43.297Z,996.00
2023-01-13T08:11:57.159Z,996.00
2023-01-13T08:12:11.021Z,997.00
2023-01-13T08:12:38.755Z,997.00
2023-01-13T08:12:57.192Z,997.00
2023-01-13T08:13:06.097Z,997.00
2023-01-13T08:13:20.226Z,999.00
2023-01-13T08:13:34.208Z,1004.00
2023-01-13T08:13:48.323Z,1009.00
2023-01-13T08:14:02.193Z,1011.00
2023-01-13T08:14:16.070Z,1026.00
2023-01-13T08:14:29.925Z,1042.00
2023-01-13T08:14:43.820Z,1044.00
2023-01-13T08:14:57.685Z,1033.00
2023-01-13T08:15:11.560Z,1038.00
2023-01-13T08:15:25.435Z,1038.00
2023-01-13T08:15:39.327Z,1040.00
2023-01-13T08:15:53.194Z,1045.00
2023-01-13T08:16:07.082Z,1046.00
2023-01-13T08:16:20.994Z,1047.00
2023-01-13T08:16:48.817Z,1051.00
2023-01-13T08:17:02.731Z,1054.00
2023-01-13T08:17:17.751Z,1063.00
2023-01-13T08:17:29.987Z,1110.00
2023-01-13T08:17:43.841Z,1124.00
2023-01-13T08:17:57.755Z,1127.00
2023-01-13T08:18:11.828Z,1122.00
2023-01-13T08:18:25.691Z,1115.00
2023-01-13T08:18:39.563Z,1112.00
2023-01-13T08:18:53.446Z,1103.00
2023-01-13T08:19:07.367Z,1071.00
2023-01-13T08:19:21.234Z,1040.00
2023-01-13T08:19:48.952Z,1041.00
2023-01-13T08:20:02.833Z,1049.00
2023-01-13T08:20:16.697Z,1050.00
2023-01-13T08:20:30.557Z,1053.00
2023-01-13T08:20:44.445Z,1051.00
2023-01-13T08:20:58.377Z,1047.00
2023-01-13T08:21:12.256Z,1046.00
2023-01-13T08:21:26.131Z,1044.00
2023-01-13T08:21:40.000Z,1046.00
2023-01-13T08:21:53.884Z,1048.00
2023-01-13T08:22:07.785Z,1047.00
2023-01-13T08:22:21.661Z,1044.00
2023-01-13T08:22:35.520Z,1044.00
2023-01-13T08:22:49.424Z,1043.00
2023-01-13T08:23:05.562Z,1045.00
2023-01-13T08:23:18.300Z,1047.00
2023-01-13T08:23:32.158Z,1054.00
2023-01-13T08:23:59.881Z,1084.00
2023-01-13T08:24:13.759Z,1079.00
2023-01-13T08:24:27.626Z,1082.00
2023-01-13T08:24:41.497Z,1082.00
2023-01-13T08:24:55.373Z,1081.00
2023-01-13T08:25:09.262Z,1081.00
2023-01-13T08:25:23.139Z,1080.00
2023-01-13T08:25:37.024Z,1082.00
2023-01-13T08:25:50.897Z,1084.00
2023-01-13T08:26:04.761Z,1088.00
2023-01-13T08:26:18.629Z,1092.00
2023-01-13T08:26:33.443Z,1092.00
2023-01-13T08:26:47.317Z,1093.00
2023-01-13T08:27:01.179Z,1090.00
2023-01-13T08:27:28.892Z,1081.00
2023-01-13T08:27:42.758Z,1080.00
2023-01-13T08:27:56.651Z,1076.00
2023-01-13T08:28:10.530Z,1063.00
2023-01-13T08:28:24.401Z,1042.00
2023-01-13T08:28:38.265Z,1052.00
2023-01-13T08:28:52.132Z,1052.00
2023-01-13T08:29:05.993Z,1048.00
2023-01-13T08:29:19.861Z,1050.00
2023-01-13T08:29:33.722Z,1049.00
2023-01-13T08:29:47.574Z,1048.00
2023-01-13T08:30:01.457Z,1046.00
2023-01-13T08:30:15.313Z,1041.00
2023-01-13T08:30:29.264Z,1039.00
2023-01-13T08:30:43.313Z,1038.00
2023-01-13T08:30:57.251Z,1038.00
2023-01-13T08:31:11.175Z,1038.00
2023-01-13T08:31:38.902Z,1036.00
2023-01-13T08:31:52.783Z,1034.00